sensor_id;sensor_type;location;lat;lon;timestamp;P1;durP1;ratioP1;P2;durP2;ratioP2
21517;SDS011;61765;45.794;24.150;2022-09-30T00:06:55;7.65;;;4.65;;
21517;SDS011;61765;45.794;24.150;2022-09-30T00:15:03;9.02;;;3.95;;
21517;SDS011;61765;45.794;24.150;2022-09-30T00:23:09;9.10;;;3.97;;
21517;SDS011;61765;45.794;24.150;2022-09-30T00:31:17;6.85;;;3.97;;
21517;SDS011;61765;45.794;24.150;2022-09-30T00:39:25;6.82;;;4.50;;
21517;SDS011;61765;45.794;24.150;2022-09-30T00:47:45;11.80;;;4.70;;
21517;SDS011;61765;45.794;24.150;2022-09-30T00:55:56;11.17;;;5.97;;
21517;SDS011;61765;45.794;24.150;2022-09-30T01:04:08;12.57;;;5.53;;
21517;SDS011;61765;45.794;24.150;2022-09-30T01:12:17;13.25;;;6.50;;
21517;SDS011;61765;45.794;24.150;2022-09-30T01:20:45;9.15;;;6.72;;
21517;SDS011;61765;45.794;24.150;2022-09-30T01:29:11;11.25;;;5.80;;
21517;SDS011;61765;45.794;24.150;2022-09-30T01:37:47;12.27;;;6.32;;
21517;SDS011;61765;45.794;24.150;2022-09-30T01:46:01;9.32;;;5.40;;
21517;SDS011;61765;45.794;24.150;2022-09-30T01:54:16;10.98;;;5.88;;
21517;SDS011;61765;45.794;24.150;2022-09-30T02:10:36;9.35;;;5.45;;
21517;SDS011;61765;45.794;24.150;2022-09-30T02:18:46;7.18;;;5.03;;
21517;SDS011;61765;45.794;24.150;2022-09-30T02:26:56;7.55;;;5.25;;
21517;SDS011;61765;45.794;24.150;2022-09-30T02:35:05;9.18;;;5.80;;
21517;SDS011;61765;45.794;24.150;2022-09-30T02:43:17;10.68;;;5.40;;
21517;SDS011;61765;45.794;24.150;2022-09-30T02:51:25;9.25;;;5.88;;
21517;SDS011;61765;45.794;24.150;2022-09-30T02:59:51;8.60;;;5.68;;
21517;SDS011;61765;45.794;24.150;2022-09-30T03:07:57;8.73;;;5.85;;
21517;SDS011;61765;45.794;24.150;2022-09-30T03:16:09;9.05;;;4.72;;
21517;SDS011;61765;45.794;24.150;2022-09-30T03:24:29;8.95;;;5.13;;
21517;SDS011;61765;45.794;24.150;2022-09-30T03:32:57;11.57;;;4.70;;
21517;SDS011;61765;45.794;24.150;2022-09-30T03:41:13;10.73;;;3.90;;
21517;SDS011;61765;45.794;24.150;2022-09-30T03:49:27;9.32;;;4.07;;
21517;SDS011;61765;45.794;24.150;2022-09-30T03:57:36;10.82;;;3.70;;
21517;SDS011;61765;45.794;24.150;2022-09-30T04:05:44;5.00;;;3.38;;
21517;SDS011;61765;45.794;24.150;2022-09-30T04:13:50;5.20;;;2.72;;
21517;SDS011;61765;45.794;24.150;2022-09-30T04:21:58;7.13;;;4.13;;
21517;SDS011;61765;45.794;24.150;2022-09-30T04:30:03;7.82;;;3.13;;
21517;SDS011;61765;45.794;24.150;2022-09-30T04:38:12;4.22;;;2.58;;
21517;SDS011;61765;45.794;24.150;2022-09-30T04:46:19;3.80;;;2.78;;
21517;SDS011;61765;45.794;24.150;2022-09-30T04:54:27;4.78;;;3.08;;
21517;SDS011;61765;45.794;24.150;2022-09-30T05:02:33;5.88;;;3.28;;
21517;SDS011;61765;45.794;24.150;2022-09-30T05:10:41;9.43;;;3.47;;
21517;SDS011;61765;45.794;24.150;2022-09-30T05:18:47;7.45;;;4.78;;
21517;SDS011;61765;45.794;24.150;2022-09-30T05:26:55;14.60;;;5.35;;
21517;SDS011;61765;45.794;24.150;2022-09-30T05:35:01;6.78;;;3.65;;
21517;SDS011;61765;45.794;24.150;2022-09-30T05:43:09;6.07;;;3.53;;
21517;SDS011;61765;45.794;24.150;2022-09-30T05:51:15;7.57;;;3.30;;
21517;SDS011;61765;45.794;24.150;2022-09-30T05:59:22;10.25;;;5.03;;
21517;SDS011;61765;45.794;24.150;2022-09-30T06:07:28;10.02;;;5.97;;
21517;SDS011;61765;45.794;24.150;2022-09-30T06:15:36;5.95;;;3.15;;
21517;SDS011;61765;45.794;24.150;2022-09-30T06:23:42;15.57;;;5.85;;
21517;SDS011;61765;45.794;24.150;2022-09-30T06:31:50;6.85;;;2.97;;
21517;SDS011;61765;45.794;24.150;2022-09-30T06:39:55;8.77;;;2.90;;
21517;SDS011;61765;45.794;24.150;2022-09-30T06:48:04;6.20;;;2.97;;
21517;SDS011;61765;45.794;24.150;2022-09-30T06:56:10;6.82;;;3.13;;
21517;SDS011;61765;45.794;24.150;2022-09-30T07:04:21;6.65;;;3.17;;
21517;SDS011;61765;45.794;24.150;2022-09-30T07:12:26;7.95;;;2.47;;
21517;SDS011;61765;45.794;24.150;2022-09-30T07:20:35;3.38;;;2.10;;
21517;SDS011;61765;45.794;24.150;2022-09-30T07:28:41;3.53;;;2.60;;
21517;SDS011;61765;45.794;24.150;2022-09-30T07:36:49;4.72;;;3.05;;
21517;SDS011;61765;45.794;24.150;2022-09-30T07:44:54;8.35;;;3.72;;
21517;SDS011;61765;45.794;24.150;2022-09-30T07:53:02;4.47;;;2.90;;
21517;SDS011;61765;45.794;24.150;2022-09-30T08:01:08;8.27;;;4.30;;
21517;SDS011;61765;45.794;24.150;2022-09-30T08:09:17;6.03;;;3.92;;
21517;SDS011;61765;45.794;24.150;2022-09-30T08:17:24;12.10;;;4.32;;
21517;SDS011;61765;45.794;24.150;2022-09-30T08:25:32;12.63;;;4.32;;
21517;SDS011;61765;45.794;24.150;2022-09-30T08:33:37;8.48;;;4.75;;
21517;SDS011;61765;45.794;24.150;2022-09-30T08:41:48;8.95;;;4.43;;
21517;SDS011;61765;45.794;24.150;2022-09-30T08:50:24;7.18;;;4.25;;
21517;SDS011;61765;45.794;24.150;2022-09-30T08:58:40;7.22;;;4.60;;
21517;SDS011;61765;45.794;24.150;2022-09-30T09:06:49;8.05;;;4.78;;
21517;SDS011;61765;45.794;24.150;2022-09-30T09:15:09;12.65;;;8.32;;
21517;SDS011;61765;45.794;24.150;2022-09-30T09:23:26;13.38;;;6.15;;
21517;SDS011;61765;45.794;24.150;2022-09-30T09:31:38;12.77;;;6.13;;
21517;SDS011;61765;45.794;24.150;2022-09-30T09:39:48;12.75;;;5.50;;
21517;SDS011;61765;45.794;24.150;2022-09-30T09:48:10;8.50;;;3.60;;
21517;SDS011;61765;45.794;24.150;2022-09-30T09:56:19;5.15;;;3.03;;
21517;SDS011;61765;45.794;24.150;2022-09-30T10:04:35;10.98;;;3.80;;
21517;SDS011;61765;45.794;24.150;2022-09-30T10:13:00;5.60;;;2.47;;
21517;SDS011;61765;45.794;24.150;2022-09-30T10:21:19;7.43;;;2.40;;
21517;SDS011;61765;45.794;24.150;2022-09-30T10:29:27;3.63;;;1.87;;
21517;SDS011;61765;45.794;24.150;2022-09-30T10:37:37;7.10;;;3.78;;
21517;SDS011;61765;45.794;24.150;2022-09-30T10:45:52;5.22;;;2.35;;
21517;SDS011;61765;45.794;24.150;2022-09-30T10:54:34;6.18;;;3.60;;
21517;SDS011;61765;45.794;24.150;2022-09-30T11:02:51;3.88;;;2.55;;
21517;SDS011;61765;45.794;24.150;2022-09-30T11:11:06;3.70;;;2.30;;
21517;SDS011;61765;45.794;24.150;2022-09-30T11:19:16;4.28;;;2.80;;
21517;SDS011;61765;45.794;24.150;2022-09-30T11:27:33;2.90;;;2.10;;
21517;SDS011;61765;45.794;24.150;2022-09-30T11:35:50;8.32;;;3.35;;
21517;SDS011;61765;45.794;24.150;2022-09-30T11:52:13;3.13;;;1.95;;
21517;SDS011;61765;45.794;24.150;2022-09-30T12:00:25;12.73;;;8.10;;
21517;SDS011;61765;45.794;24.150;2022-09-30T12:08:34;5.82;;;2.40;;
21517;SDS011;61765;45.794;24.150;2022-09-30T12:16:47;6.30;;;3.10;;
21517;SDS011;61765;45.794;24.150;2022-09-30T12:24:53;5.45;;;2.90;;
21517;SDS011;61765;45.794;24.150;2022-09-30T12:41:39;6.82;;;3.17;;
21517;SDS011;61765;45.794;24.150;2022-09-30T12:50:00;5.60;;;2.67;;
21517;SDS011;61765;45.794;24.150;2022-09-30T12:58:13;7.55;;;2.72;;
21517;SDS011;61765;45.794;24.150;2022-09-30T13:23:43;6.93;;;2.70;;
21517;SDS011;61765;45.794;24.150;2022-09-30T13:32:05;6.53;;;2.15;;
21517;SDS011;61765;45.794;24.150;2022-09-30T13:40:15;4.00;;;2.63;;
21517;SDS011;61765;45.794;24.150;2022-09-30T13:48:49;4.17;;;2.30;;
21517;SDS011;61765;45.794;24.150;2022-09-30T13:56:59;5.47;;;2.80;;
21517;SDS011;61765;45.794;24.150;2022-09-30T14:05:17;6.20;;;2.75;;
21517;SDS011;61765;45.794;24.150;2022-09-30T14:13:44;4.53;;;2.23;;
21517;SDS011;61765;45.794;24.150;2022-09-30T14:22:01;7.55;;;3.30;;
21517;SDS011;61765;45.794;24.150;2022-09-30T14:30:10;6.30;;;2.80;;
21517;SDS011;61765;45.794;24.150;2022-09-30T14:38:21;6.35;;;3.35;;
21517;SDS011;61765;45.794;24.150;2022-09-30T14:46:31;8.33;;;3.90;;
21517;SDS011;61765;45.794;24.150;2022-09-30T14:54:47;5.53;;;4.00;;
21517;SDS011;61765;45.794;24.150;2022-09-30T15:02:53;7.25;;;4.70;;
21517;SDS011;61765;45.794;24.150;2022-09-30T15:11:01;7.57;;;3.75;;
21517;SDS011;61765;45.794;24.150;2022-09-30T15:19:11;5.80;;;4.32;;
21517;SDS011;61765;45.794;24.150;2022-09-30T15:27:26;7.13;;;3.83;;
21517;SDS011;61765;45.794;24.150;2022-09-30T15:35:33;7.60;;;4.97;;
21517;SDS011;61765;45.794;24.150;2022-09-30T15:43:42;9.23;;;4.45;;
21517;SDS011;61765;45.794;24.150;2022-09-30T15:51:51;6.45;;;4.28;;
21517;SDS011;61765;45.794;24.150;2022-09-30T16:00:00;10.43;;;6.15;;
21517;SDS011;61765;45.794;24.150;2022-09-30T16:08:08;11.68;;;4.80;;
21517;SDS011;61765;45.794;24.150;2022-09-30T16:16:23;13.45;;;5.85;;
21517;SDS011;61765;45.794;24.150;2022-09-30T16:24:44;10.93;;;6.70;;
21517;SDS011;61765;45.794;24.150;2022-09-30T16:32:54;11.65;;;7.50;;
21517;SDS011;61765;45.794;24.150;2022-09-30T16:41:01;12.98;;;7.82;;
21517;SDS011;61765;45.794;24.150;2022-09-30T16:49:12;18.48;;;9.18;;
21517;SDS011;61765;45.794;24.150;2022-09-30T16:57:19;13.90;;;8.13;;
21517;SDS011;61765;45.794;24.150;2022-09-30T17:05:27;13.60;;;9.02;;
21517;SDS011;61765;45.794;24.150;2022-09-30T17:13:32;16.60;;;8.32;;
21517;SDS011;61765;45.794;24.150;2022-09-30T17:21:40;23.52;;;11.57;;
21517;SDS011;61765;45.794;24.150;2022-09-30T17:29:46;17.67;;;10.80;;
21517;SDS011;61765;45.794;24.150;2022-09-30T17:37:54;19.40;;;11.75;;
21517;SDS011;61765;45.794;24.150;2022-09-30T17:46:00;23.45;;;13.32;;
21517;SDS011;61765;45.794;24.150;2022-09-30T17:54:09;21.95;;;11.90;;
21517;SDS011;61765;45.794;24.150;2022-09-30T18:02:14;24.70;;;11.82;;
21517;SDS011;61765;45.794;24.150;2022-09-30T18:10:24;25.17;;;13.20;;
21517;SDS011;61765;45.794;24.150;2022-09-30T18:18:30;23.63;;;13.63;;
21517;SDS011;61765;45.794;24.150;2022-09-30T18:26:40;18.40;;;12.68;;
21517;SDS011;61765;45.794;24.150;2022-09-30T18:34:45;27.30;;;16.80;;
21517;SDS011;61765;45.794;24.150;2022-09-30T18:42:54;30.95;;;15.63;;
21517;SDS011;61765;45.794;24.150;2022-09-30T18:51:03;23.27;;;13.43;;
21517;SDS011;61765;45.794;24.150;2022-09-30T18:59:11;24.00;;;13.30;;
21517;SDS011;61765;45.794;24.150;2022-09-30T19:07:22;22.50;;;13.25;;
21517;SDS011;61765;45.794;24.150;2022-09-30T19:15:30;26.90;;;14.02;;
21517;SDS011;61765;45.794;24.150;2022-09-30T19:23:36;30.45;;;15.70;;
21517;SDS011;61765;45.794;24.150;2022-09-30T19:31:44;27.67;;;15.93;;
21517;SDS011;61765;45.794;24.150;2022-09-30T19:39:50;38.17;;;23.70;;
21517;SDS011;61765;45.794;24.150;2022-09-30T19:47:59;29.15;;;17.17;;
21517;SDS011;61765;45.794;24.150;2022-09-30T19:56:07;30.90;;;18.08;;
21517;SDS011;61765;45.794;24.150;2022-09-30T20:04:16;39.28;;;19.30;;
21517;SDS011;61765;45.794;24.150;2022-09-30T20:12:23;28.90;;;18.42;;
21517;SDS011;61765;45.794;24.150;2022-09-30T20:20:30;30.58;;;18.15;;
21517;SDS011;61765;45.794;24.150;2022-09-30T20:28:43;28.00;;;17.50;;
21517;SDS011;61765;45.794;24.150;2022-09-30T20:36:51;36.40;;;21.08;;
21517;SDS011;61765;45.794;24.150;2022-09-30T20:44:56;36.00;;;21.05;;
21517;SDS011;61765;45.794;24.150;2022-09-30T20:53:07;29.70;;;17.42;;
21517;SDS011;61765;45.794;24.150;2022-09-30T21:01:14;29.10;;;17.70;;
21517;SDS011;61765;45.794;24.150;2022-09-30T21:09:24;29.23;;;18.05;;
21517;SDS011;61765;45.794;24.150;2022-09-30T21:17:29;34.65;;;18.15;;
21517;SDS011;61765;45.794;24.150;2022-09-30T21:25:37;31.08;;;16.88;;
21517;SDS011;61765;45.794;24.150;2022-09-30T21:33:43;22.55;;;14.27;;
21517;SDS011;61765;45.794;24.150;2022-09-30T21:41:51;26.08;;;13.13;;
21517;SDS011;61765;45.794;24.150;2022-09-30T21:49:56;18.35;;;11.88;;
21517;SDS011;61765;45.794;24.150;2022-09-30T21:58:05;21.42;;;11.60;;
21517;SDS011;61765;45.794;24.150;2022-09-30T22:06:10;13.40;;;9.30;;
21517;SDS011;61765;45.794;24.150;2022-09-30T22:14:22;18.98;;;10.07;;
21517;SDS011;61765;45.794;24.150;2022-09-30T22:22:27;16.90;;;10.20;;
21517;SDS011;61765;45.794;24.150;2022-09-30T22:30:35;15.35;;;9.77;;
21517;SDS011;61765;45.794;24.150;2022-09-30T22:38:40;15.15;;;9.43;;
21517;SDS011;61765;45.794;24.150;2022-09-30T22:46:48;14.10;;;9.02;;
21517;SDS011;61765;45.794;24.150;2022-09-30T22:54:54;11.90;;;8.70;;
21517;SDS011;61765;45.794;24.150;2022-09-30T23:03:02;19.58;;;8.98;;
21517;SDS011;61765;45.794;24.150;2022-09-30T23:11:08;12.95;;;8.93;;
21517;SDS011;61765;45.794;24.150;2022-09-30T23:19:19;11.68;;;8.32;;
21517;SDS011;61765;45.794;24.150;2022-09-30T23:27:25;19.98;;;8.75;;
21517;SDS011;61765;45.794;24.150;2022-09-30T23:35:33;12.90;;;7.80;;
21517;SDS011;61765;45.794;24.150;2022-09-30T23:43:38;12.43;;;6.88;;
21517;SDS011;61765;45.794;24.150;2022-09-30T23:51:51;11.70;;;7.28;;
21517;SDS011;61765;45.794;24.150;2022-09-30T23:59:57;10.40;;;6.53;;
